sensor_id;sensor_type;location;lat;lon;timestamp;P1;durP1;ratioP1;P2;durP2;ratioP2
1509;SDS011;746;48.688;9.428;2023-05-16T00:02:16;11.57;;;10.57;;
1509;SDS011;746;48.688;9.428;2023-05-16T00:04:38;11.83;;;10.73;;
1509;SDS011;746;48.688;9.428;2023-05-16T00:07:00;10.90;;;9.90;;
1509;SDS011;746;48.688;9.428;2023-05-16T00:09:21;11.27;;;10.17;;
1509;SDS011;746;48.688;9.428;2023-05-16T00:11:42;11.03;;;10.03;;
1509;SDS011;746;48.688;9.428;2023-05-16T00:14:05;10.80;;;9.87;;
1509;SDS011;746;48.688;9.428;2023-05-16T00:16:27;10.97;;;9.97;;
1509;SDS011;746;48.688;9.428;2023-05-16T00:18:49;10.33;;;9.53;;
1509;SDS011;746;48.688;9.428;2023-05-16T00:21:11;10.53;;;9.50;;
1509;SDS011;746;48.688;9.428;2023-05-16T00:23:33;10.10;;;9.20;;
1509;SDS011;746;48.688;9.428;2023-05-16T00:25:54;10.97;;;10.07;;
1509;SDS011;746;48.688;9.428;2023-05-16T00:28:16;11.00;;;10.10;;
1509;SDS011;746;48.688;9.428;2023-05-16T00:30:39;12.13;;;11.03;;
1509;SDS011;746;48.688;9.428;2023-05-16T00:33:00;11.40;;;10.30;;
1509;SDS011;746;48.688;9.428;2023-05-16T00:35:21;10.77;;;9.77;;
1509;SDS011;746;48.688;9.428;2023-05-16T00:37:43;10.80;;;9.70;;
1509;SDS011;746;48.688;9.428;2023-05-16T00:40:05;11.60;;;10.60;;
1509;SDS011;746;48.688;9.428;2023-05-16T00:42:26;11.57;;;10.47;;
1509;SDS011;746;48.688;9.428;2023-05-16T00:44:47;10.63;;;9.67;;
1509;SDS011;746;48.688;9.428;2023-05-16T00:47:10;10.97;;;10.07;;
1509;SDS011;746;48.688;9.428;2023-05-16T00:49:32;11.43;;;10.33;;
1509;SDS011;746;48.688;9.428;2023-05-16T00:51:53;9.67;;;8.77;;
1509;SDS011;746;48.688;9.428;2023-05-16T00:54:14;10.80;;;9.80;;
1509;SDS011;746;48.688;9.428;2023-05-16T00:56:35;10.47;;;9.57;;
1509;SDS011;746;48.688;9.428;2023-05-16T00:58:57;11.00;;;10.10;;
1509;SDS011;746;48.688;9.428;2023-05-16T01:01:18;9.40;;;8.53;;
1509;SDS011;746;48.688;9.428;2023-05-16T01:03:45;9.47;;;8.67;;
1509;SDS011;746;48.688;9.428;2023-05-16T01:06:07;9.70;;;8.90;;
1509;SDS011;746;48.688;9.428;2023-05-16T01:08:28;9.70;;;8.90;;
1509;SDS011;746;48.688;9.428;2023-05-16T01:10:52;10.50;;;9.50;;
1509;SDS011;746;48.688;9.428;2023-05-16T01:13:16;11.43;;;10.37;;
1509;SDS011;746;48.688;9.428;2023-05-16T01:15:39;11.23;;;10.23;;
1509;SDS011;746;48.688;9.428;2023-05-16T01:18:05;11.17;;;10.17;;
1509;SDS011;746;48.688;9.428;2023-05-16T01:20:31;10.67;;;9.67;;
1509;SDS011;746;48.688;9.428;2023-05-16T01:22:58;10.40;;;9.50;;
1509;SDS011;746;48.688;9.428;2023-05-16T01:25:27;10.73;;;9.83;;
1509;SDS011;746;48.688;9.428;2023-05-16T01:27:52;10.63;;;9.67;;
1509;SDS011;746;48.688;9.428;2023-05-16T01:30:16;11.27;;;10.17;;
1509;SDS011;746;48.688;9.428;2023-05-16T01:32:37;10.83;;;9.83;;
1509;SDS011;746;48.688;9.428;2023-05-16T01:34:59;11.50;;;10.43;;
1509;SDS011;746;48.688;9.428;2023-05-16T01:37:30;12.90;;;11.70;;
1509;SDS011;746;48.688;9.428;2023-05-16T01:39:55;12.63;;;11.53;;
1509;SDS011;746;48.688;9.428;2023-05-16T01:42:17;13.57;;;11.03;;
1509;SDS011;746;48.688;9.428;2023-05-16T01:44:42;12.67;;;11.47;;
1509;SDS011;746;48.688;9.428;2023-05-16T01:47:06;12.33;;;11.23;;
1509;SDS011;746;48.688;9.428;2023-05-16T01:49:30;12.00;;;10.90;;
1509;SDS011;746;48.688;9.428;2023-05-16T01:51:55;11.50;;;10.40;;
1509;SDS011;746;48.688;9.428;2023-05-16T01:54:20;11.80;;;10.60;;
1509;SDS011;746;48.688;9.428;2023-05-16T01:56:45;11.60;;;10.07;;
1509;SDS011;746;48.688;9.428;2023-05-16T01:59:08;11.10;;;10.10;;
1509;SDS011;746;48.688;9.428;2023-05-16T02:01:31;11.63;;;10.60;;
1509;SDS011;746;48.688;9.428;2023-05-16T02:03:52;12.07;;;11.03;;
1509;SDS011;746;48.688;9.428;2023-05-16T02:06:14;11.67;;;10.53;;
1509;SDS011;746;48.688;9.428;2023-05-16T02:08:35;10.83;;;9.77;;
1509;SDS011;746;48.688;9.428;2023-05-16T02:10:56;10.77;;;9.87;;
1509;SDS011;746;48.688;9.428;2023-05-16T02:13:18;11.27;;;10.27;;
1509;SDS011;746;48.688;9.428;2023-05-16T02:15:39;10.90;;;9.87;;
1509;SDS011;746;48.688;9.428;2023-05-16T02:18:02;11.27;;;10.37;;
1509;SDS011;746;48.688;9.428;2023-05-16T02:20:24;12.17;;;10.50;;
1509;SDS011;746;48.688;9.428;2023-05-16T02:22:45;12.70;;;11.47;;
1509;SDS011;746;48.688;9.428;2023-05-16T02:25:08;12.10;;;10.90;;
1509;SDS011;746;48.688;9.428;2023-05-16T02:27:30;12.40;;;11.17;;
1509;SDS011;746;48.688;9.428;2023-05-16T02:29:52;11.53;;;10.47;;
1509;SDS011;746;48.688;9.428;2023-05-16T02:32:13;12.67;;;11.37;;
1509;SDS011;746;48.688;9.428;2023-05-16T02:34:36;12.57;;;11.47;;
1509;SDS011;746;48.688;9.428;2023-05-16T02:36:57;11.77;;;10.77;;
1509;SDS011;746;48.688;9.428;2023-05-16T02:39:18;11.30;;;10.20;;
1509;SDS011;746;48.688;9.428;2023-05-16T02:41:39;11.87;;;10.67;;
1509;SDS011;746;48.688;9.428;2023-05-16T02:44:01;12.27;;;11.07;;
1509;SDS011;746;48.688;9.428;2023-05-16T02:46:23;11.63;;;10.53;;
1509;SDS011;746;48.688;9.428;2023-05-16T02:48:45;11.67;;;10.67;;
1509;SDS011;746;48.688;9.428;2023-05-16T02:51:08;11.63;;;10.60;;
1509;SDS011;746;48.688;9.428;2023-05-16T02:53:29;11.27;;;10.30;;
1509;SDS011;746;48.688;9.428;2023-05-16T02:55:50;11.17;;;10.17;;
1509;SDS011;746;48.688;9.428;2023-05-16T02:58:11;12.50;;;11.17;;
1509;SDS011;746;48.688;9.428;2023-05-16T03:00:33;12.37;;;11.27;;
1509;SDS011;746;48.688;9.428;2023-05-16T03:02:54;11.67;;;10.57;;
1509;SDS011;746;48.688;9.428;2023-05-16T03:05:16;11.93;;;10.83;;
1509;SDS011;746;48.688;9.428;2023-05-16T03:07:39;12.73;;;11.20;;
1509;SDS011;746;48.688;9.428;2023-05-16T03:10:01;12.27;;;11.20;;
1509;SDS011;746;48.688;9.428;2023-05-16T03:12:22;11.90;;;10.80;;
1509;SDS011;746;48.688;9.428;2023-05-16T03:14:43;11.60;;;10.50;;
1509;SDS011;746;48.688;9.428;2023-05-16T03:17:05;11.80;;;10.70;;
1509;SDS011;746;48.688;9.428;2023-05-16T03:19:26;12.67;;;11.37;;
1509;SDS011;746;48.688;9.428;2023-05-16T03:21:47;11.57;;;10.57;;
1509;SDS011;746;48.688;9.428;2023-05-16T03:24:10;10.40;;;9.40;;
1509;SDS011;746;48.688;9.428;2023-05-16T03:26:31;10.77;;;9.77;;
1509;SDS011;746;48.688;9.428;2023-05-16T03:28:52;10.73;;;9.83;;
1509;SDS011;746;48.688;9.428;2023-05-16T03:31:14;11.53;;;10.43;;
1509;SDS011;746;48.688;9.428;2023-05-16T03:33:35;11.37;;;10.27;;
1509;SDS011;746;48.688;9.428;2023-05-16T03:35:56;10.83;;;9.93;;
1509;SDS011;746;48.688;9.428;2023-05-16T03:38:18;11.63;;;10.50;;
1509;SDS011;746;48.688;9.428;2023-05-16T03:40:40;10.73;;;9.83;;
1509;SDS011;746;48.688;9.428;2023-05-16T03:43:02;12.47;;;11.37;;
1509;SDS011;746;48.688;9.428;2023-05-16T03:45:23;11.33;;;10.33;;
1509;SDS011;746;48.688;9.428;2023-05-16T03:47:45;10.87;;;9.87;;
1509;SDS011;746;48.688;9.428;2023-05-16T03:50:07;11.60;;;10.50;;
1509;SDS011;746;48.688;9.428;2023-05-16T03:52:28;10.77;;;9.83;;
1509;SDS011;746;48.688;9.428;2023-05-16T03:54:49;11.13;;;10.13;;
1509;SDS011;746;48.688;9.428;2023-05-16T03:57:12;10.00;;;9.13;;
1509;SDS011;746;48.688;9.428;2023-05-16T03:59:33;10.57;;;9.57;;
1509;SDS011;746;48.688;9.428;2023-05-16T04:01:55;9.90;;;9.10;;
1509;SDS011;746;48.688;9.428;2023-05-16T04:04:16;10.30;;;9.50;;
1509;SDS011;746;48.688;9.428;2023-05-16T04:06:37;11.50;;;10.40;;
1509;SDS011;746;48.688;9.428;2023-05-16T04:08:59;10.10;;;9.27;;
1509;SDS011;746;48.688;9.428;2023-05-16T04:11:20;10.73;;;9.80;;
1509;SDS011;746;48.688;9.428;2023-05-16T04:13:43;10.77;;;9.73;;
1509;SDS011;746;48.688;9.428;2023-05-16T04:16:04;9.73;;;8.83;;
1509;SDS011;746;48.688;9.428;2023-05-16T04:18:25;12.23;;;9.73;;
1509;SDS011;746;48.688;9.428;2023-05-16T04:20:47;10.67;;;9.67;;
1509;SDS011;746;48.688;9.428;2023-05-16T04:23:09;11.50;;;10.40;;
1509;SDS011;746;48.688;9.428;2023-05-16T04:25:32;11.07;;;10.10;;
1509;SDS011;746;48.688;9.428;2023-05-16T04:27:53;12.27;;;11.10;;
1509;SDS011;746;48.688;9.428;2023-05-16T04:30:16;12.83;;;11.53;;
1509;SDS011;746;48.688;9.428;2023-05-16T04:32:37;13.17;;;11.83;;
1509;SDS011;746;48.688;9.428;2023-05-16T04:34:59;14.80;;;12.30;;
1509;SDS011;746;48.688;9.428;2023-05-16T04:37:20;11.93;;;10.90;;
1509;SDS011;746;48.688;9.428;2023-05-16T04:39:41;12.30;;;11.20;;
1509;SDS011;746;48.688;9.428;2023-05-16T04:42:03;12.10;;;11.03;;
1509;SDS011;746;48.688;9.428;2023-05-16T04:44:24;12.30;;;11.10;;
1509;SDS011;746;48.688;9.428;2023-05-16T04:46:47;14.07;;;12.60;;
1509;SDS011;746;48.688;9.428;2023-05-16T04:49:08;13.20;;;11.97;;
1509;SDS011;746;48.688;9.428;2023-05-16T04:51:30;12.57;;;11.40;;
1509;SDS011;746;48.688;9.428;2023-05-16T04:53:52;11.63;;;10.57;;
1509;SDS011;746;48.688;9.428;2023-05-16T04:56:13;11.83;;;10.73;;
1509;SDS011;746;48.688;9.428;2023-05-16T04:58:35;12.27;;;11.13;;
1509;SDS011;746;48.688;9.428;2023-05-16T05:00:56;12.23;;;11.17;;
1509;SDS011;746;48.688;9.428;2023-05-16T05:03:21;11.93;;;10.83;;
1509;SDS011;746;48.688;9.428;2023-05-16T05:05:42;12.43;;;11.33;;
1509;SDS011;746;48.688;9.428;2023-05-16T05:08:05;11.60;;;10.50;;
1509;SDS011;746;48.688;9.428;2023-05-16T05:10:26;12.60;;;11.40;;
1509;SDS011;746;48.688;9.428;2023-05-16T05:12:47;12.73;;;11.57;;
1509;SDS011;746;48.688;9.428;2023-05-16T05:15:08;11.97;;;10.87;;
1509;SDS011;746;48.688;9.428;2023-05-16T05:17:29;12.53;;;11.27;;
1509;SDS011;746;48.688;9.428;2023-05-16T05:19:52;12.27;;;11.07;;
1509;SDS011;746;48.688;9.428;2023-05-16T05:22:13;12.13;;;11.03;;
1509;SDS011;746;48.688;9.428;2023-05-16T05:24:34;13.53;;;12.23;;
1509;SDS011;746;48.688;9.428;2023-05-16T05:26:56;11.97;;;10.77;;
1509;SDS011;746;48.688;9.428;2023-05-16T05:29:17;12.93;;;11.63;;
1509;SDS011;746;48.688;9.428;2023-05-16T05:31:38;13.07;;;11.80;;
1509;SDS011;746;48.688;9.428;2023-05-16T05:34:00;13.80;;;12.50;;
1509;SDS011;746;48.688;9.428;2023-05-16T05:36:22;14.10;;;12.67;;
1509;SDS011;746;48.688;9.428;2023-05-16T05:38:44;14.40;;;12.93;;
1509;SDS011;746;48.688;9.428;2023-05-16T05:41:05;13.97;;;12.67;;
1509;SDS011;746;48.688;9.428;2023-05-16T05:43:26;16.23;;;14.70;;
1509;SDS011;746;48.688;9.428;2023-05-16T05:45:48;14.53;;;13.03;;
1509;SDS011;746;48.688;9.428;2023-05-16T05:48:09;18.03;;;16.23;;
1509;SDS011;746;48.688;9.428;2023-05-16T05:50:31;21.90;;;19.07;;
1509;SDS011;746;48.688;9.428;2023-05-16T05:52:54;23.97;;;20.37;;
1509;SDS011;746;48.688;9.428;2023-05-16T05:55:15;24.90;;;20.70;;
1509;SDS011;746;48.688;9.428;2023-05-16T05:57:37;23.97;;;20.83;;
1509;SDS011;746;48.688;9.428;2023-05-16T05:59:58;27.30;;;21.53;;
1509;SDS011;746;48.688;9.428;2023-05-16T06:02:20;26.47;;;21.23;;
1509;SDS011;746;48.688;9.428;2023-05-16T06:04:41;29.37;;;23.47;;
1509;SDS011;746;48.688;9.428;2023-05-16T06:07:04;29.37;;;24.27;;
1509;SDS011;746;48.688;9.428;2023-05-16T06:09:26;26.57;;;23.67;;
1509;SDS011;746;48.688;9.428;2023-05-16T06:11:48;26.00;;;22.97;;
1509;SDS011;746;48.688;9.428;2023-05-16T06:14:09;25.97;;;23.07;;
1509;SDS011;746;48.688;9.428;2023-05-16T06:16:31;29.50;;;25.00;;
1509;SDS011;746;48.688;9.428;2023-05-16T06:18:52;28.90;;;24.80;;
1509;SDS011;746;48.688;9.428;2023-05-16T06:21:13;31.23;;;26.13;;
1509;SDS011;746;48.688;9.428;2023-05-16T06:23:35;30.20;;;25.47;;
1509;SDS011;746;48.688;9.428;2023-05-16T06:25:58;30.57;;;27.27;;
1509;SDS011;746;48.688;9.428;2023-05-16T06:28:19;35.40;;;27.27;;
1509;SDS011;746;48.688;9.428;2023-05-16T06:30:40;33.40;;;28.37;;
1509;SDS011;746;48.688;9.428;2023-05-16T06:33:01;36.13;;;28.97;;
1509;SDS011;746;48.688;9.428;2023-05-16T06:35:23;36.27;;;28.13;;
1509;SDS011;746;48.688;9.428;2023-05-16T06:37:45;34.80;;;28.07;;
1509;SDS011;746;48.688;9.428;2023-05-16T06:40:06;32.83;;;27.40;;
1509;SDS011;746;48.688;9.428;2023-05-16T06:42:29;35.40;;;27.20;;
1509;SDS011;746;48.688;9.428;2023-05-16T06:44:51;35.33;;;30.33;;
1509;SDS011;746;48.688;9.428;2023-05-16T06:47:12;36.17;;;29.43;;
1509;SDS011;746;48.688;9.428;2023-05-16T06:49:34;36.13;;;30.47;;
1509;SDS011;746;48.688;9.428;2023-05-16T06:51:55;34.40;;;28.90;;
1509;SDS011;746;48.688;9.428;2023-05-16T06:54:16;34.67;;;28.87;;
1509;SDS011;746;48.688;9.428;2023-05-16T06:56:37;33.47;;;29.00;;
1509;SDS011;746;48.688;9.428;2023-05-16T06:59:00;32.80;;;26.97;;
1509;SDS011;746;48.688;9.428;2023-05-16T07:01:21;34.60;;;27.33;;
1509;SDS011;746;48.688;9.428;2023-05-16T07:03:42;31.77;;;27.37;;
1509;SDS011;746;48.688;9.428;2023-05-16T07:06:03;30.97;;;25.93;;
1509;SDS011;746;48.688;9.428;2023-05-16T07:08:25;29.53;;;25.67;;
1509;SDS011;746;48.688;9.428;2023-05-16T07:10:46;30.17;;;26.03;;
1509;SDS011;746;48.688;9.428;2023-05-16T07:13:07;28.73;;;25.23;;
1509;SDS011;746;48.688;9.428;2023-05-16T07:15:29;27.00;;;24.10;;
1509;SDS011;746;48.688;9.428;2023-05-16T07:17:51;28.13;;;23.60;;
1509;SDS011;746;48.688;9.428;2023-05-16T07:20:12;27.47;;;23.57;;
1509;SDS011;746;48.688;9.428;2023-05-16T07:22:34;26.33;;;23.40;;
1509;SDS011;746;48.688;9.428;2023-05-16T07:24:55;26.13;;;22.93;;
1509;SDS011;746;48.688;9.428;2023-05-16T07:27:19;27.30;;;23.50;;
1509;SDS011;746;48.688;9.428;2023-05-16T07:29:42;26.93;;;22.67;;
1509;SDS011;746;48.688;9.428;2023-05-16T07:32:05;26.33;;;23.53;;
1509;SDS011;746;48.688;9.428;2023-05-16T07:34:26;24.73;;;21.87;;
1509;SDS011;746;48.688;9.428;2023-05-16T07:36:48;27.00;;;24.10;;
1509;SDS011;746;48.688;9.428;2023-05-16T07:39:09;29.83;;;23.87;;
1509;SDS011;746;48.688;9.428;2023-05-16T07:41:30;25.73;;;22.90;;
1509;SDS011;746;48.688;9.428;2023-05-16T07:43:52;26.23;;;19.93;;
1509;SDS011;746;48.688;9.428;2023-05-16T07:46:13;24.80;;;21.50;;
1509;SDS011;746;48.688;9.428;2023-05-16T07:48:36;24.33;;;21.70;;
1509;SDS011;746;48.688;9.428;2023-05-16T07:50:57;22.93;;;20.03;;
1509;SDS011;746;48.688;9.428;2023-05-16T07:53:19;22.27;;;19.87;;
1509;SDS011;746;48.688;9.428;2023-05-16T07:55:40;23.37;;;20.17;;
1509;SDS011;746;48.688;9.428;2023-05-16T07:58:02;22.77;;;20.30;;
1509;SDS011;746;48.688;9.428;2023-05-16T08:00:23;21.07;;;18.87;;
1509;SDS011;746;48.688;9.428;2023-05-16T08:02:44;23.67;;;19.10;;
1509;SDS011;746;48.688;9.428;2023-05-16T08:05:08;21.23;;;19.00;;
1509;SDS011;746;48.688;9.428;2023-05-16T08:07:29;19.33;;;17.23;;
1509;SDS011;746;48.688;9.428;2023-05-16T08:09:50;19.43;;;17.40;;
1509;SDS011;746;48.688;9.428;2023-05-16T08:12:11;19.73;;;15.83;;
1509;SDS011;746;48.688;9.428;2023-05-16T08:14:32;18.87;;;16.30;;
1509;SDS011;746;48.688;9.428;2023-05-16T08:16:53;18.77;;;16.00;;
1509;SDS011;746;48.688;9.428;2023-05-16T08:19:15;18.53;;;15.77;;
1509;SDS011;746;48.688;9.428;2023-05-16T08:21:38;15.57;;;14.07;;
1509;SDS011;746;48.688;9.428;2023-05-16T08:23:59;16.50;;;14.57;;
1509;SDS011;746;48.688;9.428;2023-05-16T08:26:21;15.43;;;13.83;;
1509;SDS011;746;48.688;9.428;2023-05-16T08:28:42;15.87;;;14.27;;
1509;SDS011;746;48.688;9.428;2023-05-16T08:31:04;16.77;;;13.90;;
1509;SDS011;746;48.688;9.428;2023-05-16T08:33:27;15.47;;;13.97;;
1509;SDS011;746;48.688;9.428;2023-05-16T08:35:49;17.90;;;15.17;;
1509;SDS011;746;48.688;9.428;2023-05-16T08:38:13;16.57;;;14.83;;
1509;SDS011;746;48.688;9.428;2023-05-16T08:40:34;17.10;;;15.30;;
1509;SDS011;746;48.688;9.428;2023-05-16T08:42:55;16.67;;;15.00;;
1509;SDS011;746;48.688;9.428;2023-05-16T08:45:17;16.40;;;14.80;;
1509;SDS011;746;48.688;9.428;2023-05-16T08:47:39;16.53;;;14.53;;
1509;SDS011;746;48.688;9.428;2023-05-16T08:50:01;17.73;;;15.83;;
1509;SDS011;746;48.688;9.428;2023-05-16T08:52:25;17.10;;;15.40;;
1509;SDS011;746;48.688;9.428;2023-05-16T08:54:49;17.83;;;16.03;;
1509;SDS011;746;48.688;9.428;2023-05-16T08:57:27;18.00;;;16.10;;
1509;SDS011;746;48.688;9.428;2023-05-16T08:59:48;17.17;;;15.37;;
1509;SDS011;746;48.688;9.428;2023-05-16T09:02:12;17.13;;;15.33;;
1509;SDS011;746;48.688;9.428;2023-05-16T09:04:34;17.53;;;15.47;;
1509;SDS011;746;48.688;9.428;2023-05-16T09:06:56;17.70;;;15.37;;
1509;SDS011;746;48.688;9.428;2023-05-16T09:09:18;16.43;;;14.73;;
1509;SDS011;746;48.688;9.428;2023-05-16T09:11:40;17.93;;;16.13;;
1509;SDS011;746;48.688;9.428;2023-05-16T09:14:01;17.47;;;15.70;;
1509;SDS011;746;48.688;9.428;2023-05-16T09:16:24;17.40;;;15.57;;
1509;SDS011;746;48.688;9.428;2023-05-16T09:18:46;17.73;;;15.87;;
1509;SDS011;746;48.688;9.428;2023-05-16T09:21:12;19.23;;;16.83;;
1509;SDS011;746;48.688;9.428;2023-05-16T09:23:34;17.87;;;15.97;;
1509;SDS011;746;48.688;9.428;2023-05-16T09:25:56;22.30;;;16.67;;
1509;SDS011;746;48.688;9.428;2023-05-16T09:28:19;18.83;;;16.93;;
1509;SDS011;746;48.688;9.428;2023-05-16T09:30:44;19.90;;;17.90;;
1509;SDS011;746;48.688;9.428;2023-05-16T09:33:06;21.07;;;18.27;;
1509;SDS011;746;48.688;9.428;2023-05-16T09:35:28;21.30;;;19.00;;
1509;SDS011;746;48.688;9.428;2023-05-16T09:38:04;19.97;;;17.97;;
1509;SDS011;746;48.688;9.428;2023-05-16T09:40:25;21.33;;;18.60;;
1509;SDS011;746;48.688;9.428;2023-05-16T09:42:46;23.33;;;19.23;;
1509;SDS011;746;48.688;9.428;2023-05-16T09:45:11;21.47;;;18.30;;
1509;SDS011;746;48.688;9.428;2023-05-16T09:47:33;21.90;;;19.57;;
1509;SDS011;746;48.688;9.428;2023-05-16T09:49:55;19.10;;;17.17;;
1509;SDS011;746;48.688;9.428;2023-05-16T09:52:16;18.73;;;16.83;;
1509;SDS011;746;48.688;9.428;2023-05-16T09:54:37;19.17;;;17.17;;
1509;SDS011;746;48.688;9.428;2023-05-16T09:56:59;23.10;;;18.47;;
1509;SDS011;746;48.688;9.428;2023-05-16T09:59:22;20.77;;;17.80;;
1509;SDS011;746;48.688;9.428;2023-05-16T10:01:44;19.17;;;17.17;;
1509;SDS011;746;48.688;9.428;2023-05-16T10:04:08;20.80;;;18.67;;
1509;SDS011;746;48.688;9.428;2023-05-16T10:06:33;20.20;;;17.53;;
1509;SDS011;746;48.688;9.428;2023-05-16T10:08:54;20.53;;;17.80;;
1509;SDS011;746;48.688;9.428;2023-05-16T10:11:15;19.73;;;16.83;;
1509;SDS011;746;48.688;9.428;2023-05-16T10:13:37;21.70;;;17.80;;
1509;SDS011;746;48.688;9.428;2023-05-16T10:16:00;18.80;;;16.90;;
1509;SDS011;746;48.688;9.428;2023-05-16T10:18:23;19.30;;;17.30;;
1509;SDS011;746;48.688;9.428;2023-05-16T10:20:50;20.67;;;17.93;;
1509;SDS011;746;48.688;9.428;2023-05-16T10:23:13;19.10;;;16.93;;
1509;SDS011;746;48.688;9.428;2023-05-16T10:25:38;19.93;;;17.83;;
1509;SDS011;746;48.688;9.428;2023-05-16T10:28:01;19.53;;;16.97;;
1509;SDS011;746;48.688;9.428;2023-05-16T10:30:23;22.23;;;18.40;;
1509;SDS011;746;48.688;9.428;2023-05-16T10:32:46;20.60;;;18.20;;
1509;SDS011;746;48.688;9.428;2023-05-16T10:35:09;20.20;;;17.17;;
1509;SDS011;746;48.688;9.428;2023-05-16T10:37:30;20.30;;;17.70;;
1509;SDS011;746;48.688;9.428;2023-05-16T10:39:52;18.70;;;16.77;;
1509;SDS011;746;48.688;9.428;2023-05-16T10:42:13;18.03;;;16.23;;
1509;SDS011;746;48.688;9.428;2023-05-16T10:44:37;17.90;;;15.93;;
1509;SDS011;746;48.688;9.428;2023-05-16T10:47:00;17.73;;;15.93;;
1509;SDS011;746;48.688;9.428;2023-05-16T10:49:24;18.83;;;16.90;;
1509;SDS011;746;48.688;9.428;2023-05-16T10:51:47;19.03;;;17.03;;
1509;SDS011;746;48.688;9.428;2023-05-16T10:54:13;18.90;;;16.93;;
1509;SDS011;746;48.688;9.428;2023-05-16T10:56:37;18.47;;;16.57;;
1509;SDS011;746;48.688;9.428;2023-05-16T10:58:58;19.13;;;16.07;;
1509;SDS011;746;48.688;9.428;2023-05-16T11:01:20;18.67;;;16.77;;
1509;SDS011;746;48.688;9.428;2023-05-16T11:06:23;19.90;;;17.80;;
1509;SDS011;746;48.688;9.428;2023-05-16T11:08:57;19.67;;;17.07;;
1509;SDS011;746;48.688;9.428;2023-05-16T11:14:12;21.80;;;17.80;;
1509;SDS011;746;48.688;9.428;2023-05-16T11:16:37;20.07;;;17.73;;
1509;SDS011;746;48.688;9.428;2023-05-16T11:19:03;20.50;;;17.33;;
1509;SDS011;746;48.688;9.428;2023-05-16T11:21:40;21.07;;;18.83;;
1509;SDS011;746;48.688;9.428;2023-05-16T11:24:29;20.80;;;18.60;;
1509;SDS011;746;48.688;9.428;2023-05-16T11:26:50;21.23;;;17.97;;
1509;SDS011;746;48.688;9.428;2023-05-16T11:29:13;19.87;;;17.67;;
1509;SDS011;746;48.688;9.428;2023-05-16T11:31:34;20.73;;;18.50;;
1509;SDS011;746;48.688;9.428;2023-05-16T11:33:56;21.33;;;19.03;;
1509;SDS011;746;48.688;9.428;2023-05-16T11:36:17;20.67;;;18.47;;
1509;SDS011;746;48.688;9.428;2023-05-16T11:38:38;19.80;;;17.73;;
1509;SDS011;746;48.688;9.428;2023-05-16T11:41:07;20.97;;;18.33;;
1509;SDS011;746;48.688;9.428;2023-05-16T11:43:29;20.77;;;18.03;;
1509;SDS011;746;48.688;9.428;2023-05-16T11:45:56;20.67;;;18.30;;
1509;SDS011;746;48.688;9.428;2023-05-16T11:48:18;19.20;;;17.17;;
1509;SDS011;746;48.688;9.428;2023-05-16T11:50:54;19.30;;;16.60;;
1509;SDS011;746;48.688;9.428;2023-05-16T11:53:15;19.87;;;17.67;;
1509;SDS011;746;48.688;9.428;2023-05-16T11:55:37;20.20;;;17.43;;
1509;SDS011;746;48.688;9.428;2023-05-16T11:58:03;19.83;;;17.63;;
1509;SDS011;746;48.688;9.428;2023-05-16T12:00:25;20.43;;;17.00;;
1509;SDS011;746;48.688;9.428;2023-05-16T12:02:47;19.43;;;17.40;;
1509;SDS011;746;48.688;9.428;2023-05-16T12:05:09;19.27;;;17.30;;
1509;SDS011;746;48.688;9.428;2023-05-16T12:07:32;19.83;;;17.67;;
1509;SDS011;746;48.688;9.428;2023-05-16T12:09:53;23.13;;;17.77;;
1509;SDS011;746;48.688;9.428;2023-05-16T12:12:14;19.87;;;16.97;;
1509;SDS011;746;48.688;9.428;2023-05-16T12:14:37;19.50;;;17.03;;
1509;SDS011;746;48.688;9.428;2023-05-16T12:16:57;21.13;;;17.30;;
1509;SDS011;746;48.688;9.428;2023-05-16T12:19:19;18.90;;;16.90;;
1509;SDS011;746;48.688;9.428;2023-05-16T12:21:41;20.63;;;15.83;;
1509;SDS011;746;48.688;9.428;2023-05-16T12:24:02;17.57;;;15.67;;
1509;SDS011;746;48.688;9.428;2023-05-16T12:26:24;17.17;;;15.37;;
1509;SDS011;746;48.688;9.428;2023-05-16T12:28:46;17.30;;;15.20;;
1509;SDS011;746;48.688;9.428;2023-05-16T12:31:18;16.67;;;14.27;;
1509;SDS011;746;48.688;9.428;2023-05-16T12:33:51;15.73;;;14.03;;
1509;SDS011;746;48.688;9.428;2023-05-16T12:36:12;17.83;;;14.67;;
1509;SDS011;746;48.688;9.428;2023-05-16T12:38:34;17.60;;;14.57;;
1509;SDS011;746;48.688;9.428;2023-05-16T12:40:56;15.77;;;13.77;;
1509;SDS011;746;48.688;9.428;2023-05-16T12:43:18;14.87;;;13.37;;
1509;SDS011;746;48.688;9.428;2023-05-16T12:45:40;15.87;;;14.27;;
1509;SDS011;746;48.688;9.428;2023-05-16T12:48:08;14.43;;;12.93;;
1509;SDS011;746;48.688;9.428;2023-05-16T12:50:32;14.27;;;12.87;;
1509;SDS011;746;48.688;9.428;2023-05-16T12:52:53;15.23;;;13.67;;
1509;SDS011;746;48.688;9.428;2023-05-16T12:55:18;14.77;;;13.30;;
1509;SDS011;746;48.688;9.428;2023-05-16T12:57:43;17.20;;;13.40;;
1509;SDS011;746;48.688;9.428;2023-05-16T13:00:07;18.90;;;16.23;;
1509;SDS011;746;48.688;9.428;2023-05-16T13:02:31;16.73;;;14.93;;
1509;SDS011;746;48.688;9.428;2023-05-16T13:04:53;20.57;;;16.23;;
1509;SDS011;746;48.688;9.428;2023-05-16T13:07:14;15.10;;;12.07;;
1509;SDS011;746;48.688;9.428;2023-05-16T13:09:36;12.43;;;11.23;;
1509;SDS011;746;48.688;9.428;2023-05-16T13:11:58;36.07;;;24.90;;
1509;SDS011;746;48.688;9.428;2023-05-16T13:14:20;13.60;;;12.20;;
1509;SDS011;746;48.688;9.428;2023-05-16T13:16:42;12.50;;;10.40;;
1509;SDS011;746;48.688;9.428;2023-05-16T13:19:04;12.50;;;10.50;;
1509;SDS011;746;48.688;9.428;2023-05-16T13:21:27;10.60;;;9.60;;
1509;SDS011;746;48.688;9.428;2023-05-16T13:23:50;10.83;;;9.73;;
1509;SDS011;746;48.688;9.428;2023-05-16T13:26:12;10.40;;;9.30;;
1509;SDS011;746;48.688;9.428;2023-05-16T13:28:33;10.30;;;9.20;;
1509;SDS011;746;48.688;9.428;2023-05-16T13:30:55;10.20;;;9.20;;
1509;SDS011;746;48.688;9.428;2023-05-16T13:33:19;9.73;;;8.77;;
1509;SDS011;746;48.688;9.428;2023-05-16T13:35:41;8.77;;;7.97;;
1509;SDS011;746;48.688;9.428;2023-05-16T13:38:06;7.47;;;6.77;;
1509;SDS011;746;48.688;9.428;2023-05-16T13:40:28;8.70;;;7.80;;
1509;SDS011;746;48.688;9.428;2023-05-16T13:42:49;11.03;;;7.20;;
1509;SDS011;746;48.688;9.428;2023-05-16T13:45:10;7.67;;;6.97;;
1509;SDS011;746;48.688;9.428;2023-05-16T13:47:31;7.20;;;6.60;;
1509;SDS011;746;48.688;9.428;2023-05-16T13:49:53;7.63;;;6.77;;
1509;SDS011;746;48.688;9.428;2023-05-16T13:52:14;7.57;;;6.87;;
1509;SDS011;746;48.688;9.428;2023-05-16T13:54:37;7.23;;;6.63;;
1509;SDS011;746;48.688;9.428;2023-05-16T13:57:00;6.30;;;5.73;;
1509;SDS011;746;48.688;9.428;2023-05-16T13:59:22;6.57;;;5.97;;
1509;SDS011;746;48.688;9.428;2023-05-16T14:02:04;6.53;;;6.00;;
1509;SDS011;746;48.688;9.428;2023-05-16T14:04:26;5.80;;;5.40;;
1509;SDS011;746;48.688;9.428;2023-05-16T14:06:47;5.77;;;5.30;;
1509;SDS011;746;48.688;9.428;2023-05-16T14:09:09;5.73;;;5.33;;
1509;SDS011;746;48.688;9.428;2023-05-16T14:11:33;5.90;;;5.40;;
1509;SDS011;746;48.688;9.428;2023-05-16T14:13:54;6.07;;;5.57;;
1509;SDS011;746;48.688;9.428;2023-05-16T14:16:16;6.00;;;5.50;;
1509;SDS011;746;48.688;9.428;2023-05-16T14:18:37;5.90;;;5.33;;
1509;SDS011;746;48.688;9.428;2023-05-16T14:20:58;7.87;;;5.60;;
1509;SDS011;746;48.688;9.428;2023-05-16T14:23:21;6.27;;;5.77;;
1509;SDS011;746;48.688;9.428;2023-05-16T14:25:42;5.70;;;5.27;;
1509;SDS011;746;48.688;9.428;2023-05-16T14:28:05;6.30;;;5.80;;
1509;SDS011;746;48.688;9.428;2023-05-16T14:30:26;5.00;;;4.70;;
1509;SDS011;746;48.688;9.428;2023-05-16T14:32:48;5.00;;;4.60;;
1509;SDS011;746;48.688;9.428;2023-05-16T14:35:09;5.10;;;4.70;;
1509;SDS011;746;48.688;9.428;2023-05-16T14:37:31;5.50;;;5.10;;
1509;SDS011;746;48.688;9.428;2023-05-16T14:39:52;4.93;;;4.60;;
1509;SDS011;746;48.688;9.428;2023-05-16T14:42:13;5.10;;;4.60;;